createdAt,value
2023-05-10T07:03:11.783Z,100553.00
2023-05-10T07:06:29.465Z,100554.81
2023-05-10T07:09:35.724Z,100552.16
2023-05-10T07:12:39.160Z,100545.72
2023-05-10T07:15:41.699Z,100548.87
2023-05-10T07:18:45.847Z,100552.88
2023-05-10T07:21:48.350Z,100550.53
2023-05-10T07:24:51.144Z,100545.63
2023-05-10T07:27:53.545Z,100546.03
2023-05-10T07:30:56.550Z,100550.88
2023-05-10T07:34:00.329Z,100544.12
2023-05-10T07:37:03.186Z,100538.41
2023-05-10T07:40:07.309Z,100544.38
2023-05-10T07:43:09.963Z,100535.00
2023-05-10T07:46:12.507Z,100536.50
2023-05-10T07:49:16.784Z,100535.53
2023-05-10T07:52:21.226Z,100537.75
2023-05-10T07:55:25.169Z,100531.94
2023-05-10T07:58:27.923Z,100534.88
2023-05-10T08:01:31.548Z,100528.78
2023-05-10T08:04:35.873Z,100533.03
2023-05-10T08:07:38.388Z,100540.75
2023-05-10T08:10:41.090Z,100541.50
2023-05-10T08:13:43.708Z,100540.34
2023-05-10T08:16:46.457Z,100534.72
2023-05-10T08:19:50.840Z,100540.94
2023-05-10T08:22:54.309Z,100538.19
2023-05-10T08:25:56.739Z,100543.72
2023-05-10T08:28:59.456Z,100536.09
2023-05-10T08:32:01.975Z,100537.91
2023-05-10T08:35:06.651Z,100534.47
2023-05-10T08:38:09.032Z,100531.78
2023-05-10T08:41:11.719Z,100529.19
2023-05-10T08:44:14.180Z,100527.88
2023-05-10T08:47:17.513Z,100533.16
2023-05-10T08:50:22.963Z,100527.72
2023-05-10T08:53:28.837Z,100526.97
2023-05-10T08:56:31.244Z,100527.88
2023-05-10T08:59:34.172Z,100527.09
2023-05-10T09:02:36.689Z,100525.47
2023-05-10T09:05:40.715Z,100527.69
2023-05-10T09:08:43.078Z,100521.63
2023-05-10T09:11:45.933Z,100524.66
2023-05-10T09:14:48.365Z,100525.84
2023-05-10T09:17:51.223Z,100523.06
2023-05-10T09:20:55.124Z,100523.19
2023-05-10T09:23:57.788Z,100528.16
2023-05-10T09:27:00.999Z,100529.28
2023-05-10T09:30:04.132Z,100521.63
2023-05-10T09:33:06.759Z,100519.59
2023-05-10T09:36:11.405Z,100512.94
2023-05-10T09:39:13.822Z,100500.75
2023-05-10T09:42:19.639Z,100502.47
2023-05-10T09:45:22.404Z,100505.22
2023-05-10T09:48:25.102Z,100507.38
2023-05-10T09:51:28.928Z,100502.34
2023-05-10T09:54:31.824Z,100500.63
2023-05-10T09:57:35.217Z,100499.22
2023-05-10T10:00:37.999Z,100494.53
2023-05-10T10:03:43.027Z,100494.37
2023-05-10T10:06:46.875Z,100491.75
2023-05-10T10:09:49.529Z,100491.25
2023-05-10T10:12:52.013Z,100490.88
2023-05-10T10:15:55.114Z,100480.78
2023-05-10T10:18:57.872Z,100477.16
2023-05-10T10:22:02.014Z,100473.84
2023-05-10T10:25:04.565Z,100475.53
2023-05-10T10:28:13.350Z,100466.84
2023-05-10T10:31:22.180Z,100461.09
2023-05-10T10:34:27.979Z,100464.56
2023-05-10T10:37:46.431Z,100460.13
2023-05-10T10:40:49.506Z,100458.31
2023-05-10T10:43:54.116Z,100455.50
2023-05-10T10:47:01.420Z,100454.25
2023-05-10T10:50:05.126Z,100453.28
2023-05-10T10:53:13.278Z,100451.72
2023-05-10T10:56:16.477Z,100433.75
2023-05-10T10:59:27.929Z,100442.72
2023-05-10T11:02:45.331Z,100440.47
2023-05-10T11:05:48.611Z,100452.59
2023-05-10T11:08:53.641Z,100426.97
2023-05-10T11:11:56.638Z,100422.47
2023-05-10T11:14:59.244Z,100427.94
2023-05-10T11:18:17.230Z,100425.50
2023-05-10T11:21:19.691Z,100422.56
2023-05-10T11:24:24.203Z,100417.97
2023-05-10T11:27:26.698Z,100424.34
2023-05-10T11:30:29.568Z,100407.47
2023-05-10T11:33:32.024Z,100413.06
2023-05-10T11:36:36.847Z,100408.88
2023-05-10T11:39:46.159Z,100404.81
2023-05-10T11:42:48.804Z,100402.09
2023-05-10T11:45:51.272Z,100403.28
2023-05-10T11:48:55.239Z,100401.25
2023-05-10T11:52:05.275Z,100406.91
2023-05-10T11:55:09.734Z,100399.37
2023-05-10T11:58:12.251Z,100410.34
2023-05-10T12:01:14.908Z,100414.91
2023-05-10T12:04:17.874Z,100409.66
2023-05-10T12:07:20.562Z,100409.72
2023-05-10T12:10:27.679Z,100411.44
2023-05-10T12:13:30.183Z,100408.50
2023-05-10T12:16:32.942Z,100407.69
2023-05-10T12:19:38.619Z,100405.41
2023-05-10T12:22:41.556Z,100396.25
2023-05-10T12:25:46.448Z,100400.72
2023-05-10T12:28:49.156Z,100398.78
2023-05-10T12:31:55.517Z,100393.84
2023-05-10T12:34:58.241Z,100394.75
2023-05-10T12:38:00.654Z,100387.50
2023-05-10T12:41:05.338Z,100380.19
2023-05-10T12:44:07.757Z,100376.47
2023-05-10T12:47:10.606Z,100386.91
2023-05-10T12:50:12.970Z,100372.41
2023-05-10T12:53:16.496Z,100369.19
2023-05-10T12:56:21.074Z,100369.63
2023-05-10T12:59:23.948Z,100365.91
2023-05-10T13:02:26.455Z,100368.53
2023-05-10T13:05:29.167Z,100363.00
2023-05-10T13:08:34.595Z,100353.16
2023-05-10T13:11:38.777Z,100339.78
2023-05-10T13:14:41.556Z,100348.56
2023-05-10T13:17:44.539Z,100349.94
2023-05-10T13:20:46.989Z,100344.00
2023-05-10T13:23:49.632Z,100332.56
2023-05-10T13:26:53.383Z,100338.97
2023-05-10T13:29:56.280Z,100328.03
2023-05-10T13:32:58.729Z,100324.59
2023-05-10T13:36:01.420Z,100322.72
2023-05-10T13:39:06.147Z,100319.44
2023-05-10T13:42:10.202Z,100314.50
2023-05-10T13:45:14.140Z,100305.44
2023-05-10T13:48:17.093Z,100318.41
2023-05-10T13:51:19.543Z,100316.53
2023-05-10T13:54:23.137Z,100310.31
2023-05-10T13:57:26.970Z,100298.44
2023-05-10T14:00:29.580Z,100305.47
2023-05-10T14:03:32.382Z,100299.69
2023-05-10T14:06:34.930Z,100294.69
2023-05-10T14:09:37.657Z,100295.13
2023-05-10T14:12:41.557Z,100300.31
2023-05-10T14:15:44.269Z,100291.69
2023-05-10T14:18:47.060Z,100300.47
2023-05-10T14:21:49.852Z,100290.19
2023-05-10T14:24:52.233Z,100287.31
2023-05-10T14:27:56.271Z,100285.09
2023-05-10T14:30:58.883Z,100285.69
2023-05-10T14:34:01.498Z,100282.03
2023-05-10T14:37:03.958Z,100275.63
2023-05-10T14:40:08.485Z,100278.66
2023-05-10T14:43:12.286Z,100276.56
2023-05-10T14:46:14.960Z,100277.28
2023-05-10T14:49:17.347Z,100282.41
2023-05-10T14:52:20.088Z,100284.06
2023-05-10T14:55:22.606Z,100279.53
2023-05-10T14:58:27.011Z,100280.78
2023-05-10T15:01:29.658Z,100272.38
2023-05-10T15:04:33.192Z,100275.88
2023-05-10T15:07:36.072Z,100270.50
